Mo I Rana, Mo i Rana Airport (ENRA)

NameMo i Rana Airport
CityMo I Rana
CountryNorway
ICAOENRA
IATAMQN
Altitude70 m
CoordinatesGoogle Map
Live Air TrafficLiveATC.net
METARENRA 141050Z VRB02KT 9999 FEW005 SCT025 BKN033 04/03 Q1014
2018-11-14 10:50:00 Wind: North (0°) 1.03 m/s - Visibility: > 10000 m - Temperature: 4 °C - Dew point: 3 °C - Humidity: 93.3% - Pressure: 1014 hPa
Statistics

The table below shows the detailed information of all flights to/from Mo I Rana, Mo i Rana Airport (ENRA).